Time;durP1;ratioP1;P1;durP2;ratioP2;P2;SDS_P1;SDS_P2;PMS_P1;PMS_P2;Temp;Humidity;BMP_temperature;BMP_pressure;BME280_temperature;BME280_humidity;BME280_pressure;Samples;Min_cycle;Max_cycle;Signal;HPM_P1;HPM_P2
2023/03/15 00:00:06;;;;;;;0.50;0.40;;;;;;;;;;5068719;28;20040;-76
2023/03/15 00:02:32;;;;;;;0.45;0.30;;;;;;;;;;5065990;28;20476;-76
2023/03/15 00:04:57;;;;;;;0.57;0.30;;;;;;;;;;5070981;28;20020;-76
2023/03/15 00:07:24;;;;;;;0.82;0.30;;;;;;;;;;5070656;28;20020;-76
2023/03/15 00:09:51;;;;;;;0.65;0.50;;;;;;;;;;5064999;28;20028;-76
2023/03/15 00:12:17;;;;;;;1.15;0.30;;;;;;;;;;5049003;28;20070;-76
2023/03/15 00:14:42;;;;;;;0.60;0.30;;;;;;;;;;5068853;28;20032;-76
2023/03/15 00:17:08;;;;;;;0.47;0.30;;;;;;;;;;5070326;28;20097;-76
2023/03/15 00:19:33;;;;;;;1.67;0.40;;;;;;;;;;5048609;28;20086;-76
2023/03/15 00:21:58;;;;;;;3.05;0.45;;;;;;;;;;5064777;28;20024;-76
2023/03/15 00:24:24;;;;;;;0.80;0.40;;;;;;;;;;5068188;28;20021;-76
2023/03/15 00:26:49;;;;;;;0.57;0.40;;;;;;;;;;5052952;28;20032;-76
2023/03/15 00:29:14;;;;;;;1.42;0.50;;;;;;;;;;5066432;28;20115;-76
2023/03/15 00:31:40;;;;;;;1.23;0.70;;;;;;;;;;5050000;28;20392;-76
2023/03/15 00:34:05;;;;;;;0.85;0.30;;;;;;;;;;5065343;28;20036;-76
2023/03/15 00:36:31;;;;;;;1.20;0.50;;;;;;;;;;5065894;28;20040;-76
2023/03/15 00:38:57;;;;;;;3.85;0.60;;;;;;;;;;5051940;28;20032;-76
2023/03/15 00:41:23;;;;;;;1.15;0.40;;;;;;;;;;5066541;28;20412;-76
2023/03/15 00:43:49;;;;;;;0.80;0.60;;;;;;;;;;5071197;28;21757;-76
2023/03/15 00:46:15;;;;;;;1.83;0.60;;;;;;;;;;5051354;28;21940;-76
2023/03/15 00:48:40;;;;;;;0.70;0.60;;;;;;;;;;5066328;28;20081;-76
2023/03/15 00:51:09;;;;;;;1.95;0.70;;;;;;;;;;5065657;28;20036;-76
2023/03/15 00:53:36;;;;;;;0.60;0.50;;;;;;;;;;5063107;28;20127;-76
2023/03/15 00:56:24;;;;;;;1.60;0.77;;;;;;;;;;5067913;28;20024;-76
2023/03/15 00:58:51;;;;;;;0.70;0.57;;;;;;;;;;5064587;28;20035;-76
2023/03/15 01:01:26;;;;;;;1.00;0.68;;;;;;;;;;5065745;28;20480;-76
2023/03/15 01:03:51;;;;;;;1.95;0.70;;;;;;;;;;5069460;28;20036;-76
2023/03/15 01:06:20;;;;;;;1.13;0.80;;;;;;;;;;5062484;28;20028;-76
2023/03/15 01:08:46;;;;;;;1.63;0.82;;;;;;;;;;5070739;28;20472;-76
2023/03/15 01:11:14;;;;;;;1.48;0.70;;;;;;;;;;5065262;28;20509;-76
2023/03/15 01:13:39;;;;;;;1.85;0.80;;;;;;;;;;5068670;28;20055;-76
2023/03/15 01:16:05;;;;;;;2.00;0.90;;;;;;;;;;5069433;28;20562;-76
2023/03/15 01:18:31;;;;;;;2.08;1.00;;;;;;;;;;5065817;28;20028;-76
2023/03/15 01:20:57;;;;;;;2.58;1.17;;;;;;;;;;5068812;28;20024;-76
2023/03/15 01:23:23;;;;;;;1.42;0.90;;;;;;;;;;5048662;28;20093;-76
2023/03/15 01:25:48;;;;;;;1.17;0.70;;;;;;;;;;5067729;28;20498;-76
2023/03/15 01:28:14;;;;;;;1.42;0.88;;;;;;;;;;5070239;28;20434;-76
2023/03/15 01:30:39;;;;;;;1.85;0.70;;;;;;;;;;5071395;28;20013;-76
2023/03/15 01:33:05;;;;;;;0.93;0.70;;;;;;;;;;5069209;28;20043;-76
2023/03/15 01:35:30;;;;;;;1.77;0.98;;;;;;;;;;5062370;28;20510;-76
2023/03/15 01:37:56;;;;;;;1.35;0.90;;;;;;;;;;5065233;28;20593;-76
2023/03/15 01:40:21;;;;;;;1.73;0.90;;;;;;;;;;5065923;28;20103;-75
2023/03/15 01:42:52;;;;;;;1.00;0.70;;;;;;;;;;5053036;28;20035;-76
2023/03/15 01:45:51;;;;;;;1.88;0.70;;;;;;;;;;5047004;28;20393;-76
2023/03/15 01:48:17;;;;;;;1.40;0.77;;;;;;;;;;5062341;28;20561;-76
2023/03/15 01:50:43;;;;;;;2.13;0.70;;;;;;;;;;5059292;28;20380;-76
2023/03/15 01:53:09;;;;;;;0.85;0.70;;;;;;;;;;5065302;28;20028;-76
2023/03/15 01:55:35;;;;;;;1.23;0.70;;;;;;;;;;5062116;28;20488;-76
2023/03/15 01:58:01;;;;;;;0.98;0.60;;;;;;;;;;5064555;28;20119;-76
2023/03/15 02:00:26;;;;;;;1.00;0.68;;;;;;;;;;5057624;28;20032;-76
2023/03/15 02:02:56;;;;;;;1.38;0.60;;;;;;;;;;5046372;28;20373;-76
2023/03/15 02:05:31;;;;;;;1.65;0.82;;;;;;;;;;5068152;28;20079;-76
2023/03/15 02:07:56;;;;;;;1.27;0.70;;;;;;;;;;5058023;28;20508;-76
2023/03/15 02:10:28;;;;;;;1.55;0.90;;;;;;;;;;5059666;28;20085;-76
2023/03/15 02:12:54;;;;;;;1.63;0.88;;;;;;;;;;5049871;28;20113;-76
2023/03/15 02:15:19;;;;;;;1.00;0.70;;;;;;;;;;5051452;28;20028;-76
2023/03/15 02:17:47;;;;;;;1.77;0.90;;;;;;;;;;5067164;28;20032;-76
2023/03/15 02:20:16;;;;;;;1.15;0.70;;;;;;;;;;5063927;28;20528;-76
2023/03/15 02:23:06;;;;;;;0.82;0.70;;;;;;;;;;5067372;28;20154;-76
2023/03/15 02:25:44;;;;;;;1.20;0.77;;;;;;;;;;5063985;28;20077;-76
2023/03/15 02:28:13;;;;;;;2.28;0.90;;;;;;;;;;5046424;28;20036;-76
2023/03/15 02:30:39;;;;;;;1.35;0.80;;;;;;;;;;5069499;28;20028;-76
2023/03/15 02:33:13;;;;;;;1.27;0.82;;;;;;;;;;5064503;28;20025;-76
2023/03/15 02:35:39;;;;;;;1.50;1.00;;;;;;;;;;5058180;28;20163;-76
2023/03/15 02:38:04;;;;;;;1.85;1.10;;;;;;;;;;5060865;28;20135;-76
2023/03/15 02:40:29;;;;;;;1.00;0.73;;;;;;;;;;5065232;28;20028;-76
2023/03/15 02:42:59;;;;;;;1.38;0.95;;;;;;;;;;5047921;28;20065;-76
2023/03/15 02:45:26;;;;;;;2.28;1.17;;;;;;;;;;5065391;28;20059;-76
2023/03/15 02:47:52;;;;;;;1.48;0.90;;;;;;;;;;5046613;28;20020;-76
2023/03/15 02:50:17;;;;;;;1.67;1.00;;;;;;;;;;5063016;28;20043;-76
2023/03/15 02:52:42;;;;;;;2.03;1.00;;;;;;;;;;5062294;28;20024;-76
2023/03/15 02:55:08;;;;;;;2.03;1.15;;;;;;;;;;5065923;28;20040;-76
2023/03/15 02:57:35;;;;;;;2.17;1.17;;;;;;;;;;5032755;28;20126;-76
2023/03/15 03:00:06;;;;;;;2.10;1.13;;;;;;;;;;5041011;28;20039;-76
2023/03/15 03:02:32;;;;;;;2.22;1.30;;;;;;;;;;5051678;28;20058;-76
2023/03/15 03:04:57;;;;;;;3.22;1.40;;;;;;;;;;5064959;28;20021;-76
2023/03/15 03:07:22;;;;;;;2.60;1.40;;;;;;;;;;5047847;28;20061;-76
2023/03/15 03:09:48;;;;;;;2.83;1.50;;;;;;;;;;5063553;28;20043;-76
2023/03/15 03:12:13;;;;;;;1.88;1.20;;;;;;;;;;5046215;28;20032;-76
2023/03/15 03:14:38;;;;;;;3.33;1.42;;;;;;;;;;5058567;28;20430;-76
2023/03/15 03:17:04;;;;;;;1.95;1.08;;;;;;;;;;5063591;28;20034;-76
2023/03/15 03:19:29;;;;;;;2.25;1.33;;;;;;;;;;5067651;28;20078;-76
2023/03/15 03:21:55;;;;;;;2.83;1.38;;;;;;;;;;5065295;28;20142;-76
2023/03/15 03:24:21;;;;;;;2.55;1.60;;;;;;;;;;5072402;28;20044;-76
2023/03/15 03:26:46;;;;;;;2.65;1.48;;;;;;;;;;5070665;28;20032;-76
2023/03/15 03:29:15;;;;;;;2.22;1.45;;;;;;;;;;5046308;28;20023;-76
2023/03/15 03:31:41;;;;;;;2.53;1.40;;;;;;;;;;5053439;28;20034;-76
2023/03/15 03:34:08;;;;;;;2.58;1.40;;;;;;;;;;5052603;28;20032;-76
2023/03/15 03:36:34;;;;;;;2.65;1.45;;;;;;;;;;5071357;28;20020;-76
2023/03/15 03:39:00;;;;;;;2.97;1.60;;;;;;;;;;5050406;28;20040;-76
2023/03/15 03:41:26;;;;;;;2.50;1.65;;;;;;;;;;5054202;28;20028;-76
2023/03/15 03:43:51;;;;;;;3.65;1.67;;;;;;;;;;5070420;28;20020;-76
2023/03/15 03:46:17;;;;;;;2.65;1.58;;;;;;;;;;5051733;28;20613;-76
2023/03/15 03:48:42;;;;;;;5.40;1.88;;;;;;;;;;5046189;28;20036;-76
2023/03/15 03:51:08;;;;;;;4.18;1.90;;;;;;;;;;5065531;28;20190;-76
2023/03/15 03:53:33;;;;;;;3.25;2.00;;;;;;;;;;5050718;28;20029;-76
2023/03/15 03:55:58;;;;;;;3.25;1.85;;;;;;;;;;5069762;28;20036;-76
2023/03/15 03:58:24;;;;;;;3.65;2.03;;;;;;;;;;5065535;28;20029;-76
2023/03/15 04:00:53;;;;;;;3.63;1.95;;;;;;;;;;5054513;28;20028;-76
2023/03/15 04:03:18;;;;;;;2.58;1.63;;;;;;;;;;5046763;28;20028;-76
2023/03/15 04:05:43;;;;;;;3.17;1.85;;;;;;;;;;5070534;28;20032;-76
2023/03/15 04:08:09;;;;;;;2.80;1.75;;;;;;;;;;5069502;28;20028;-76
2023/03/15 04:10:34;;;;;;;3.95;2.13;;;;;;;;;;5034635;28;20073;-76
2023/03/15 04:13:00;;;;;;;3.53;2.05;;;;;;;;;;5053392;28;20113;-76
2023/03/15 04:15:26;;;;;;;4.20;2.17;;;;;;;;;;5067583;28;20082;-76
2023/03/15 04:17:54;;;;;;;3.30;1.70;;;;;;;;;;5071188;28;20028;-76
2023/03/15 04:20:24;;;;;;;4.10;2.10;;;;;;;;;;5068742;28;20083;-76
2023/03/15 04:22:50;;;;;;;4.10;2.20;;;;;;;;;;5069741;28;20021;-76
2023/03/15 04:25:16;;;;;;;4.47;2.13;;;;;;;;;;5063984;28;20025;-76
2023/03/15 04:27:41;;;;;;;3.45;2.00;;;;;;;;;;5068598;28;20031;-76
2023/03/15 04:30:07;;;;;;;3.35;1.90;;;;;;;;;;5047477;28;20469;-76
2023/03/15 04:32:33;;;;;;;4.07;2.22;;;;;;;;;;5067153;28;20032;-75
2023/03/15 04:34:58;;;;;;;3.25;1.90;;;;;;;;;;5064635;28;20397;-76
2023/03/15 04:37:24;;;;;;;4.28;2.30;;;;;;;;;;5049660;28;20030;-76
2023/03/15 04:39:51;;;;;;;3.30;1.90;;;;;;;;;;5072069;28;20111;-76
2023/03/15 04:42:16;;;;;;;3.30;1.95;;;;;;;;;;5051151;28;20119;-76
2023/03/15 04:44:42;;;;;;;4.18;2.08;;;;;;;;;;5067393;28;20112;-76
2023/03/15 04:47:08;;;;;;;3.88;1.70;;;;;;;;;;5065691;28;20040;-76
2023/03/15 04:49:33;;;;;;;3.40;1.65;;;;;;;;;;5054923;28;20044;-76
2023/03/15 04:51:58;;;;;;;4.18;2.10;;;;;;;;;;5069688;28;20025;-76
2023/03/15 04:54:24;;;;;;;6.35;2.05;;;;;;;;;;5055357;28;20067;-76
2023/03/15 04:56:49;;;;;;;3.88;2.17;;;;;;;;;;5070026;28;20048;-76
2023/03/15 04:59:14;;;;;;;4.13;2.13;;;;;;;;;;5069342;28;20039;-76
2023/03/15 05:01:40;;;;;;;3.75;2.05;;;;;;;;;;5048680;28;20031;-76
2023/03/15 05:04:05;;;;;;;4.72;2.30;;;;;;;;;;5052058;28;20083;-76
2023/03/15 05:06:30;;;;;;;3.95;2.35;;;;;;;;;;5068948;28;20039;-76
2023/03/15 05:08:56;;;;;;;3.85;2.28;;;;;;;;;;5070688;28;20028;-76
2023/03/15 05:11:21;;;;;;;3.53;2.20;;;;;;;;;;5065432;28;20069;-76
2023/03/15 05:13:46;;;;;;;4.13;2.30;;;;;;;;;;5051330;28;20531;-76
2023/03/15 05:16:12;;;;;;;4.40;2.38;;;;;;;;;;5064310;28;20017;-76
2023/03/15 05:18:37;;;;;;;4.30;2.30;;;;;;;;;;5050838;28;20025;-76
2023/03/15 05:21:04;;;;;;;4.38;2.05;;;;;;;;;;5070570;28;20025;-76
2023/03/15 05:23:32;;;;;;;4.68;2.22;;;;;;;;;;5067207;28;20025;-75
2023/03/15 05:25:58;;;;;;;4.57;2.47;;;;;;;;;;5069192;28;20024;-76
2023/03/15 05:28:25;;;;;;;3.67;2.22;;;;;;;;;;5070769;28;20033;-76
2023/03/15 05:30:51;;;;;;;4.90;2.20;;;;;;;;;;5063548;28;20021;-76
2023/03/15 05:33:17;;;;;;;5.22;2.10;;;;;;;;;;5065447;28;20028;-76
2023/03/15 05:35:43;;;;;;;4.45;2.30;;;;;;;;;;5070869;28;20389;-76
2023/03/15 05:38:13;;;;;;;4.00;2.28;;;;;;;;;;5057510;28;20024;-76
2023/03/15 05:40:40;;;;;;;4.85;2.22;;;;;;;;;;5067681;28;21325;-76
2023/03/15 05:43:05;;;;;;;4.10;2.45;;;;;;;;;;5059946;28;20028;-76
2023/03/15 05:45:31;;;;;;;4.88;2.25;;;;;;;;;;5070582;28;20074;-76
2023/03/15 05:47:56;;;;;;;5.65;2.33;;;;;;;;;;5052824;28;20025;-76
2023/03/15 05:50:22;;;;;;;3.90;2.40;;;;;;;;;;5063809;28;20016;-76
2023/03/15 05:52:49;;;;;;;4.80;2.22;;;;;;;;;;5052147;28;20028;-76
2023/03/15 05:55:15;;;;;;;5.55;2.60;;;;;;;;;;5042782;28;20024;-76
2023/03/15 05:57:40;;;;;;;3.65;2.30;;;;;;;;;;5048777;28;20024;-76
2023/03/15 06:00:07;;;;;;;4.38;2.50;;;;;;;;;;5043753;28;20056;-76
2023/03/15 06:02:33;;;;;;;6.75;2.50;;;;;;;;;;5056058;28;20032;-75
2023/03/15 06:04:58;;;;;;;4.60;2.53;;;;;;;;;;5063943;28;20028;-76
2023/03/15 06:07:23;;;;;;;4.70;2.55;;;;;;;;;;5065783;28;20032;-76
2023/03/15 06:09:49;;;;;;;5.70;2.72;;;;;;;;;;5059483;28;20531;-76
2023/03/15 06:12:14;;;;;;;4.97;2.83;;;;;;;;;;5065541;28;20024;-75
2023/03/15 06:14:39;;;;;;;4.65;2.50;;;;;;;;;;5046496;28;20090;-76
2023/03/15 06:17:05;;;;;;;6.30;2.72;;;;;;;;;;5064586;28;20032;-76
2023/03/15 06:19:30;;;;;;;5.80;2.90;;;;;;;;;;5048560;28;20028;-76
2023/03/15 06:21:55;;;;;;;4.95;2.80;;;;;;;;;;5068522;28;20096;-76
2023/03/15 06:24:20;;;;;;;4.82;2.83;;;;;;;;;;5065703;28;20066;-76
2023/03/15 06:26:46;;;;;;;4.63;2.65;;;;;;;;;;5068628;28;20090;-76
2023/03/15 06:29:11;;;;;;;5.07;2.83;;;;;;;;;;5049596;28;20028;-76
2023/03/15 06:31:36;;;;;;;5.18;2.78;;;;;;;;;;5046179;28;20036;-76
2023/03/15 06:34:02;;;;;;;5.82;3.15;;;;;;;;;;5071842;28;20025;-76
2023/03/15 06:36:27;;;;;;;4.72;2.70;;;;;;;;;;5070277;28;20039;-76
2023/03/15 06:38:53;;;;;;;4.88;2.85;;;;;;;;;;5060354;28;20052;-76
2023/03/15 06:41:19;;;;;;;5.03;2.80;;;;;;;;;;5062574;28;20349;-76
2023/03/15 06:43:44;;;;;;;6.07;3.10;;;;;;;;;;5063209;28;20063;-76
2023/03/15 06:46:09;;;;;;;6.07;2.70;;;;;;;;;;5064729;28;20048;-75
2023/03/15 06:48:35;;;;;;;5.00;2.67;;;;;;;;;;5067088;28;20024;-75
2023/03/15 06:51:00;;;;;;;6.35;2.55;;;;;;;;;;5051283;28;20028;-76
2023/03/15 06:53:25;;;;;;;4.47;2.65;;;;;;;;;;5060332;28;20031;-76
2023/03/15 06:55:51;;;;;;;5.68;2.78;;;;;;;;;;5061727;28;20035;-75
2023/03/15 06:58:16;;;;;;;5.35;3.00;;;;;;;;;;5051880;28;20078;-75
2023/03/15 07:00:43;;;;;;;4.68;2.63;;;;;;;;;;5070136;28;20600;-75
2023/03/15 07:03:08;;;;;;;5.65;3.05;;;;;;;;;;5062337;28;20039;-75
2023/03/15 07:05:33;;;;;;;5.78;2.97;;;;;;;;;;5070110;28;20016;-75
2023/03/15 07:07:59;;;;;;;6.03;2.75;;;;;;;;;;5049619;28;20048;-75
2023/03/15 07:10:24;;;;;;;5.63;2.63;;;;;;;;;;5068498;28;20059;-75
2023/03/15 07:12:50;;;;;;;5.70;3.00;;;;;;;;;;5046359;28;20025;-76
2023/03/15 07:15:15;;;;;;;4.22;2.63;;;;;;;;;;5063614;28;20025;-76
2023/03/15 07:17:40;;;;;;;4.50;2.50;;;;;;;;;;5059985;28;20036;-75
2023/03/15 07:20:07;;;;;;;4.50;2.75;;;;;;;;;;5063952;28;20037;-76
2023/03/15 07:22:32;;;;;;;5.03;2.10;;;;;;;;;;5065838;28;20430;-75
2023/03/15 07:24:58;;;;;;;4.05;2.55;;;;;;;;;;5065936;28;20028;-76
2023/03/15 07:27:23;;;;;;;4.90;2.40;;;;;;;;;;5061688;28;20090;-76
2023/03/15 07:29:49;;;;;;;4.80;2.25;;;;;;;;;;5054360;28;20033;-75
2023/03/15 07:32:14;;;;;;;5.40;2.30;;;;;;;;;;5054084;28;20024;-76
2023/03/15 07:34:39;;;;;;;4.65;2.28;;;;;;;;;;5060369;28;20475;-76
2023/03/15 07:37:05;;;;;;;5.32;1.70;;;;;;;;;;5063234;28;20099;-75
2023/03/15 07:39:31;;;;;;;5.10;1.88;;;;;;;;;;5043642;28;20059;-75
2023/03/15 07:41:59;;;;;;;4.45;1.60;;;;;;;;;;5062415;28;20020;-76
2023/03/15 07:44:25;;;;;;;2.08;1.17;;;;;;;;;;5058202;28;20484;-75
2023/03/15 07:46:51;;;;;;;2.35;0.98;;;;;;;;;;5056451;28;20033;-76
2023/03/15 07:49:16;;;;;;;3.22;1.08;;;;;;;;;;5047599;28;20025;-75
2023/03/15 07:51:41;;;;;;;4.80;1.05;;;;;;;;;;5040076;28;20322;-76
2023/03/15 07:54:07;;;;;;;4.88;1.48;;;;;;;;;;5065272;28;20028;-75
2023/03/15 07:56:33;;;;;;;4.43;1.20;;;;;;;;;;5041387;28;20029;-75
2023/03/15 07:58:58;;;;;;;3.63;1.23;;;;;;;;;;5048230;28;20063;-75
2023/03/15 08:01:24;;;;;;;4.30;1.05;;;;;;;;;;5057971;28;20024;-75
2023/03/15 08:03:49;;;;;;;2.65;1.02;;;;;;;;;;5049805;28;20029;-75
2023/03/15 08:06:14;;;;;;;3.42;1.40;;;;;;;;;;5065944;28;20369;-75
2023/03/15 08:08:39;;;;;;;3.63;0.85;;;;;;;;;;5045040;28;20028;-75
2023/03/15 08:11:05;;;;;;;3.08;1.20;;;;;;;;;;5061717;28;20028;-75
2023/03/15 08:13:30;;;;;;;2.97;0.88;;;;;;;;;;5067213;28;20420;-75
2023/03/15 08:15:56;;;;;;;2.03;0.85;;;;;;;;;;5068724;28;20063;-75
2023/03/15 08:18:21;;;;;;;3.47;1.40;;;;;;;;;;5068148;28;20464;-75
2023/03/15 08:20:47;;;;;;;7.38;1.48;;;;;;;;;;5062045;28;20024;-75
2023/03/15 08:23:15;;;;;;;4.68;1.45;;;;;;;;;;5062764;28;20104;-75
2023/03/15 08:25:42;;;;;;;5.93;1.10;;;;;;;;;;5069222;28;20083;-75
2023/03/15 08:28:07;;;;;;;8.48;1.35;;;;;;;;;;5059251;28;20025;-74
2023/03/15 08:30:32;;;;;;;5.40;1.33;;;;;;;;;;5065507;28;20030;-74
2023/03/15 08:32:58;;;;;;;2.17;1.08;;;;;;;;;;5069829;28;20024;-74
2023/03/15 08:35:23;;;;;;;5.80;1.30;;;;;;;;;;5067927;28;20035;-74
2023/03/15 08:37:51;;;;;;;3.80;1.20;;;;;;;;;;5060010;28;20053;-74
2023/03/15 08:40:23;;;;;;;4.18;1.00;;;;;;;;;;5073380;28;20039;-75
2023/03/15 08:42:49;;;;;;;3.33;1.20;;;;;;;;;;5052970;28;20515;-74
2023/03/15 08:45:15;;;;;;;4.15;1.20;;;;;;;;;;5064747;28;20033;-74
2023/03/15 08:47:41;;;;;;;5.20;1.70;;;;;;;;;;5066842;28;20040;-74
2023/03/15 08:50:10;;;;;;;4.85;1.00;;;;;;;;;;5052023;28;20024;-74
2023/03/15 08:52:36;;;;;;;6.03;1.20;;;;;;;;;;5051537;28;20380;-75
2023/03/15 08:55:03;;;;;;;2.83;0.90;;;;;;;;;;5068621;28;20024;-75
2023/03/15 08:57:31;;;;;;;3.75;1.00;;;;;;;;;;5038865;28;20028;-74
2023/03/15 09:00:00;;;;;;;7.07;1.00;;;;;;;;;;5052652;28;20032;-74
2023/03/15 09:02:27;;;;;;;3.13;1.00;;;;;;;;;;5069182;28;20039;-74
2023/03/15 09:04:52;;;;;;;9.05;1.17;;;;;;;;;;5050981;28;20103;-76
2023/03/15 09:07:17;;;;;;;2.92;1.30;;;;;;;;;;5042324;28;20163;-74
2023/03/15 09:09:46;;;;;;;4.10;1.10;;;;;;;;;;5068697;28;20107;-74
2023/03/15 09:12:13;;;;;;;4.82;1.27;;;;;;;;;;5068802;28;20075;-75
2023/03/15 09:14:38;;;;;;;3.78;1.00;;;;;;;;;;5063844;28;20064;-74
2023/03/15 09:17:04;;;;;;;3.65;1.10;;;;;;;;;;5049288;28;20126;-75
2023/03/15 09:19:31;;;;;;;4.53;1.45;;;;;;;;;;5054552;28;20380;-74
2023/03/15 09:21:56;;;;;;;2.33;1.08;;;;;;;;;;5065113;28;20166;-75
2023/03/15 09:24:22;;;;;;;5.55;1.23;;;;;;;;;;5040474;28;20115;-74
2023/03/15 09:26:47;;;;;;;4.07;1.30;;;;;;;;;;5069109;28;20075;-74
2023/03/15 09:29:13;;;;;;;4.07;1.20;;;;;;;;;;5068675;28;20032;-75
2023/03/15 09:31:38;;;;;;;2.60;1.30;;;;;;;;;;5062763;28;20020;-75
2023/03/15 09:34:04;;;;;;;6.72;1.40;;;;;;;;;;5050302;28;20031;-75
2023/03/15 09:36:30;;;;;;;3.83;1.20;;;;;;;;;;5044651;28;20152;-75
2023/03/15 09:38:56;;;;;;;4.78;1.08;;;;;;;;;;5065603;28;20205;-75
2023/03/15 09:41:44;;;;;;;2.75;1.00;;;;;;;;;;5065705;28;20033;-74
2023/03/15 09:44:52;;;;;;;7.38;1.17;;;;;;;;;;5052111;28;20033;-77
2023/03/15 09:47:48;;;;;;;5.35;1.40;;;;;;;;;;5069117;28;20108;-74
2023/03/15 09:50:34;;;;;;;2.80;1.10;;;;;;;;;;5063523;28;20020;-75
2023/03/15 09:53:05;;;;;;;4.25;1.00;;;;;;;;;;5065922;28;20494;-74
2023/03/15 09:55:31;;;;;;;2.20;1.00;;;;;;;;;;5058519;28;20038;-75
2023/03/15 09:57:59;;;;;;;3.67;1.30;;;;;;;;;;5073858;28;20028;-74
2023/03/15 10:00:47;;;;;;;3.33;1.00;;;;;;;;;;5069875;28;20024;-75
2023/03/15 10:03:30;;;;;;;4.72;1.00;;;;;;;;;;5066321;28;20539;-76
2023/03/15 10:06:01;;;;;;;6.05;1.17;;;;;;;;;;5067013;28;20032;-75
2023/03/15 10:08:27;;;;;;;3.22;0.77;;;;;;;;;;5065374;28;20020;-74
2023/03/15 10:11:12;;;;;;;4.93;1.17;;;;;;;;;;5070204;28;20025;-74
2023/03/15 10:13:51;;;;;;;4.63;1.05;;;;;;;;;;5067176;28;20074;-75
2023/03/15 10:16:38;;;;;;;3.53;0.82;;;;;;;;;;5068165;28;20090;-75
2023/03/15 10:19:44;;;;;;;5.65;0.82;;;;;;;;;;5064999;28;20020;-75
2023/03/15 10:22:12;;;;;;;4.68;1.00;;;;;;;;;;5065857;28;20036;-75
2023/03/15 10:25:10;;;;;;;5.22;1.35;;;;;;;;;;5043821;28;20043;-75
2023/03/15 10:27:56;;;;;;;10.68;1.60;;;;;;;;;;5060710;28;20024;-76
2023/03/15 10:30:27;;;;;;;4.30;0.95;;;;;;;;;;5068876;28;20040;-74
2023/03/15 10:32:58;;;;;;;2.80;1.20;;;;;;;;;;5060986;28;20598;-76
2023/03/15 10:35:23;;;;;;;4.55;1.00;;;;;;;;;;5046238;28;20101;-75
2023/03/15 10:37:49;;;;;;;2.90;1.17;;;;;;;;;;5045582;28;20036;-75
2023/03/15 10:40:35;;;;;;;8.73;1.30;;;;;;;;;;5045900;28;20020;-75
2023/03/15 10:43:00;;;;;;;3.40;0.95;;;;;;;;;;5066374;28;20139;-75
2023/03/15 10:45:27;;;;;;;4.82;0.75;;;;;;;;;;5071617;28;20099;-74
2023/03/15 10:47:53;;;;;;;3.85;0.93;;;;;;;;;;5069026;28;20069;-75
2023/03/15 10:50:31;;;;;;;3.63;0.93;;;;;;;;;;5068405;28;20056;-74
2023/03/15 10:53:00;;;;;;;3.03;0.93;;;;;;;;;;5064704;28;20056;-74
2023/03/15 10:55:35;;;;;;;2.75;0.70;;;;;;;;;;5048481;28;20392;-75
2023/03/15 10:58:18;;;;;;;3.03;0.70;;;;;;;;;;5068326;28;20373;-74
2023/03/15 11:00:59;;;;;;;3.22;0.75;;;;;;;;;;5070819;28;20059;-74
2023/03/15 11:03:26;;;;;;;5.30;1.00;;;;;;;;;;5070078;28;20064;-75
2023/03/15 11:05:56;;;;;;;3.85;0.80;;;;;;;;;;5068818;28;20484;-74
2023/03/15 11:08:37;;;;;;;5.63;1.10;;;;;;;;;;5069877;28;20024;-74
2023/03/15 11:11:03;;;;;;;6.28;0.85;;;;;;;;;;5047590;28;20028;-75
2023/03/15 11:13:31;;;;;;;5.13;1.17;;;;;;;;;;5066788;28;20033;-76
2023/03/15 11:16:17;;;;;;;4.05;1.00;;;;;;;;;;5052526;28;20024;-75
2023/03/15 11:18:47;;;;;;;5.10;1.15;;;;;;;;;;5060486;28;20024;-74
2023/03/15 11:21:14;;;;;;;5.55;1.08;;;;;;;;;;5047700;28;20055;-75
2023/03/15 11:23:46;;;;;;;5.60;1.38;;;;;;;;;;5066765;28;20025;-74
2023/03/15 11:26:23;;;;;;;3.15;0.70;;;;;;;;;;5059927;28;20020;-75
2023/03/15 11:28:59;;;;;;;5.38;1.02;;;;;;;;;;5063628;28;20472;-75
2023/03/15 11:31:27;;;;;;;4.05;1.10;;;;;;;;;;5063346;28;20473;-75
2023/03/15 11:34:10;;;;;;;5.53;1.25;;;;;;;;;;5043864;28;20780;-75
2023/03/15 11:36:40;;;;;;;2.95;0.95;;;;;;;;;;5059532;28;20181;-75
2023/03/15 11:39:08;;;;;;;4.50;0.90;;;;;;;;;;5047939;28;20040;-75
2023/03/15 11:41:55;;;;;;;5.75;1.20;;;;;;;;;;5049453;28;20024;-75
2023/03/15 11:44:32;;;;;;;3.67;1.00;;;;;;;;;;5067586;28;20111;-74
2023/03/15 11:47:18;;;;;;;3.40;0.80;;;;;;;;;;5043317;28;20028;-75
2023/03/15 11:49:53;;;;;;;2.53;0.73;;;;;;;;;;5072532;28;20021;-75
2023/03/15 11:52:22;;;;;;;3.90;0.90;;;;;;;;;;5074412;28;20036;-76
2023/03/15 11:54:48;;;;;;;3.40;0.80;;;;;;;;;;5051980;28;20082;-75
2023/03/15 11:57:31;;;;;;;2.88;0.80;;;;;;;;;;5071134;28;20045;-75
2023/03/15 12:00:18;;;;;;;4.95;1.00;;;;;;;;;;5054171;28;20086;-75
2023/03/15 12:02:51;;;;;;;4.03;0.93;;;;;;;;;;5046045;28;20032;-75
2023/03/15 12:05:49;;;;;;;3.22;0.70;;;;;;;;;;5047901;28;20028;-75
2023/03/15 12:08:36;;;;;;;1.58;0.60;;;;;;;;;;5070041;28;20025;-75
2023/03/15 12:11:29;;;;;;;3.13;0.88;;;;;;;;;;5071632;28;20058;-75
2023/03/15 12:13:57;;;;;;;4.18;0.70;;;;;;;;;;5066738;28;20039;-75
2023/03/15 12:16:26;;;;;;;1.45;0.50;;;;;;;;;;5050240;28;20045;-74
2023/03/15 12:18:56;;;;;;;3.30;0.85;;;;;;;;;;5040304;28;20047;-75
2023/03/15 12:21:33;;;;;;;5.53;0.80;;;;;;;;;;5068678;28;20503;-75
2023/03/15 12:24:04;;;;;;;3.45;0.60;;;;;;;;;;5062008;28;20024;-74
2023/03/15 12:26:44;;;;;;;3.50;0.80;;;;;;;;;;5039920;28;20037;-75
2023/03/15 12:29:20;;;;;;;2.47;0.60;;;;;;;;;;5071378;28;20036;-75
2023/03/15 12:31:52;;;;;;;2.38;0.40;;;;;;;;;;5073080;28;20369;-75
2023/03/15 12:34:27;;;;;;;3.30;0.63;;;;;;;;;;5072596;28;20113;-75
2023/03/15 12:36:58;;;;;;;3.20;0.65;;;;;;;;;;5070782;28;20677;-75
2023/03/15 12:39:37;;;;;;;2.03;0.70;;;;;;;;;;5069230;28;20039;-75
2023/03/15 12:42:03;;;;;;;1.33;0.45;;;;;;;;;;5067650;28;20032;-75
2023/03/15 12:44:31;;;;;;;3.25;0.80;;;;;;;;;;5071443;28;20028;-76
2023/03/15 12:46:59;;;;;;;3.67;0.80;;;;;;;;;;5047112;28;20154;-76
2023/03/15 12:49:25;;;;;;;4.00;0.65;;;;;;;;;;5049657;28;20032;-75
2023/03/15 12:52:03;;;;;;;1.70;0.60;;;;;;;;;;5051901;28;20027;-75
2023/03/15 12:54:48;;;;;;;2.75;0.52;;;;;;;;;;5051654;28;20484;-75
2023/03/15 12:57:20;;;;;;;2.47;0.57;;;;;;;;;;5070621;28;20028;-79
2023/03/15 13:00:10;;;;;;;4.07;0.75;;;;;;;;;;5052554;28;20031;-77
2023/03/15 13:03:15;;;;;;;1.67;0.68;;;;;;;;;;5071382;28;20028;-77
2023/03/15 13:06:17;;;;;;;2.30;0.65;;;;;;;;;;5059505;28;20512;-77
2023/03/15 13:09:14;;;;;;;6.13;0.85;;;;;;;;;;5054117;28;20393;-76
2023/03/15 13:12:07;;;;;;;2.17;0.45;;;;;;;;;;5064453;28;20089;-76
2023/03/15 13:14:43;;;;;;;2.22;1.17;;;;;;;;;;5067292;28;20028;-77
2023/03/15 13:17:17;;;;;;;7.07;0.68;;;;;;;;;;5056002;28;20051;-77
2023/03/15 13:19:55;;;;;;;4.85;0.82;;;;;;;;;;5052898;28;20081;-77
2023/03/15 13:23:00;;;;;;;1.65;0.43;;;;;;;;;;5069437;28;20093;-77
2023/03/15 13:25:42;;;;;;;1.88;0.47;;;;;;;;;;5067525;28;20498;-77
2023/03/15 13:28:23;;;;;;;1.77;0.63;;;;;;;;;;5075693;28;20036;-77
2023/03/15 13:30:52;;;;;;;1.13;0.50;;;;;;;;;;5065056;28;20372;-77
2023/03/15 13:33:21;;;;;;;3.28;0.98;;;;;;;;;;5072386;28;20035;-77
2023/03/15 13:35:54;;;;;;;4.07;0.90;;;;;;;;;;5073059;28;20021;-77
2023/03/15 13:38:39;;;;;;;2.85;0.63;;;;;;;;;;5058764;28;20038;-77
2023/03/15 13:41:15;;;;;;;2.70;0.65;;;;;;;;;;5047921;28;20035;-77
2023/03/15 13:43:43;;;;;;;2.20;0.52;;;;;;;;;;5065854;28;20025;-77
2023/03/15 13:46:09;;;;;;;2.80;0.80;;;;;;;;;;5040949;28;20032;-77
2023/03/15 13:48:39;;;;;;;2.95;0.70;;;;;;;;;;5073816;28;20035;-77
2023/03/15 13:51:22;;;;;;;2.33;0.50;;;;;;;;;;5070483;28;20541;-77
2023/03/15 13:53:49;;;;;;;5.95;0.93;;;;;;;;;;5071599;28;20389;-77
2023/03/15 13:56:18;;;;;;;2.63;0.60;;;;;;;;;;5053825;28;20033;-77
2023/03/15 13:58:44;;;;;;;1.20;0.60;;;;;;;;;;5055044;28;20082;-77
2023/03/15 14:01:13;;;;;;;1.42;0.50;;;;;;;;;;5069093;28;20512;-77
2023/03/15 14:03:42;;;;;;;2.83;0.75;;;;;;;;;;5064213;28;20846;-77
2023/03/15 14:06:11;;;;;;;1.38;0.50;;;;;;;;;;5073661;28;20020;-77
2023/03/15 14:08:39;;;;;;;3.17;1.02;;;;;;;;;;5060179;28;20029;-77
2023/03/15 14:11:30;;;;;;;3.53;0.85;;;;;;;;;;5065715;28;20032;-77
2023/03/15 14:14:00;;;;;;;2.72;0.60;;;;;;;;;;5065487;28;20075;-77
2023/03/15 14:16:40;;;;;;;1.67;0.68;;;;;;;;;;5074173;28;20059;-77
2023/03/15 14:19:18;;;;;;;2.63;0.65;;;;;;;;;;5069164;28;20017;-77
2023/03/15 14:21:47;;;;;;;3.05;0.75;;;;;;;;;;5070162;28;20107;-77
2023/03/15 14:24:17;;;;;;;3.28;1.00;;;;;;;;;;5071545;28;20028;-77
2023/03/15 14:26:43;;;;;;;2.97;0.70;;;;;;;;;;5051072;28;20024;-77
2023/03/15 14:29:20;;;;;;;1.73;0.70;;;;;;;;;;5068203;28;21255;-77
2023/03/15 14:31:49;;;;;;;3.78;0.70;;;;;;;;;;5069888;28;20119;-77
2023/03/15 14:34:28;;;;;;;3.15;0.82;;;;;;;;;;5054173;28;20488;-77
2023/03/15 14:36:58;;;;;;;1.40;0.60;;;;;;;;;;5066090;28;20077;-77
2023/03/15 14:39:28;;;;;;;2.10;0.70;;;;;;;;;;5070108;28;20083;-77
2023/03/15 14:41:53;;;;;;;1.67;0.70;;;;;;;;;;5051742;28;20028;-77
2023/03/15 14:44:19;;;;;;;2.67;0.80;;;;;;;;;;5066608;28;20074;-77
2023/03/15 14:46:46;;;;;;;4.25;1.00;;;;;;;;;;5053206;28;20488;-77
2023/03/15 14:49:23;;;;;;;4.80;1.38;;;;;;;;;;5075214;28;20040;-77
2023/03/15 14:51:59;;;;;;;3.17;0.73;;;;;;;;;;5055756;28;20032;-77
2023/03/15 14:54:27;;;;;;;2.58;0.70;;;;;;;;;;5068436;28;20033;-77
2023/03/15 14:56:52;;;;;;;1.95;0.70;;;;;;;;;;5069378;28;20031;-77